TimeMST,TemperatureF,Dew PointF,Humidity,Sea Level PressureIn,VisibilityMPH,Wind Direction,Wind SpeedMPH,Gust SpeedMPH,PrecipitationIn,Events,Conditions,WindDirDegrees,DateUTC
12:15 AM,6.8,-2.2,67,-9999,10.0,West,13.8,-,N/A,,Clear,260,2012-12-10 07:15:00
12:35 AM,5.0,-2.2,72,-9999,10.0,WSW,13.8,-,N/A,,Clear,250,2012-12-10 07:35:00
12:55 AM,6.8,-0.4,72,-9999,10.0,West,12.7,-,N/A,,Clear,260,2012-12-10 07:55:00
1:15 AM,8.6,-0.4,67,-9999,10.0,West,11.5,-,N/A,,Clear,260,2012-12-10 08:15:00
1:35 AM,8.6,-0.4,67,-9999,10.0,West,15.0,-,N/A,,Clear,260,2012-12-10 08:35:00
2:15 AM,6.8,-0.4,72,-9999,10.0,West,11.5,-,N/A,,Clear,260,2012-12-10 09:15:00
2:55 AM,6.8,-0.4,72,-9999,10.0,WSW,16.1,-,N/A,,Clear,250,2012-12-10 09:55:00
3:15 AM,8.6,1.4,73,-9999,10.0,West,16.1,21.9,N/A,,Clear,260,2012-12-10 10:15:00
3:35 AM,10.4,1.4,67,-9999,10.0,WSW,12.7,-,N/A,,Clear,250,2012-12-10 10:35:00
3:55 AM,14.0,5.0,67,-9999,10.0,West,9.2,-,N/A,,Scattered Clouds,280,2012-12-10 10:55:00
4:15 AM,17.6,6.8,63,-9999,10.0,West,9.2,-,N/A,,Mostly Cloudy,280,2012-12-10 11:15:00
4:35 AM,19.4,6.8,58,-9999,10.0,West,11.5,18.4,N/A,,Scattered Clouds,280,2012-12-10 11:35:00
4:55 AM,17.6,6.8,63,-9999,10.0,NW,10.4,16.1,N/A,,Clear,310,2012-12-10 11:55:00
5:15 AM,19.4,8.6,63,-9999,10.0,West,10.4,-,N/A,,Scattered Clouds,260,2012-12-10 12:15:00
5:35 AM,12.2,6.8,79,-9999,10.0,WSW,9.2,-,N/A,,Clear,250,2012-12-10 12:35:00
5:55 AM,14.0,8.6,79,-9999,10.0,West,10.4,-,N/A,,Clear,280,2012-12-10 12:55:00
6:15 AM,19.4,8.6,63,-9999,10.0,West,10.4,16.1,N/A,,Clear,280,2012-12-10 13:15:00
6:35 AM,19.4,8.6,63,-9999,10.0,West,12.7,17.3,N/A,,Clear,270,2012-12-10 13:35:00
6:55 AM,17.6,8.6,68,-9999,10.0,West,13.8,-,N/A,,Clear,260,2012-12-10 13:55:00
7:15 AM,17.6,8.6,68,-9999,10.0,West,11.5,-,N/A,,Clear,260,2012-12-10 14:15:00
7:35 AM,17.6,8.6,68,-9999,10.0,West,12.7,-,N/A,,Clear,260,2012-12-10 14:35:00
7:55 AM,17.6,8.6,68,-9999,10.0,West,12.7,17.3,N/A,,Clear,270,2012-12-10 14:55:00
8:15 AM,17.6,8.6,68,-9999,10.0,West,10.4,-,N/A,,Clear,260,2012-12-10 15:15:00
8:35 AM,17.6,8.6,68,-9999,10.0,West,10.4,-,N/A,,Clear,260,2012-12-10 15:35:00
8:55 AM,14.0,8.6,79,-9999,10.0,WSW,11.5,-,N/A,,Clear,250,2012-12-10 15:55:00
9:15 AM,14.0,8.6,79,-9999,10.0,WSW,13.8,-,N/A,,Clear,250,2012-12-10 16:15:00
9:35 AM,15.8,8.6,73,-9999,10.0,WSW,15.0,-,N/A,,Clear,250,2012-12-10 16:35:00
9:55 AM,15.8,10.4,79,-9999,10.0,West,11.5,-,N/A,,Clear,260,2012-12-10 16:55:00
10:15 AM,17.6,10.4,73,-9999,10.0,WSW,17.3,24.2,N/A,,Clear,250,2012-12-10 17:15:00
10:35 AM,17.6,10.4,73,-9999,10.0,WSW,17.3,-,N/A,,Clear,250,2012-12-10 17:35:00
10:55 AM,19.4,12.2,74,-9999,10.0,West,13.8,18.4,N/A,,Clear,260,2012-12-10 17:55:00
11:15 AM,21.2,10.4,63,-9999,10.0,West,12.7,17.3,N/A,,Clear,260,2012-12-10 18:15:00
11:35 AM,21.2,10.4,63,-9999,10.0,West,10.4,16.1,N/A,,Clear,260,2012-12-10 18:35:00
11:55 AM,21.2,10.4,63,-9999,10.0,WSW,11.5,-,N/A,,Clear,250,2012-12-10 18:55:00
12:15 PM,21.2,12.2,68,-9999,10.0,WSW,13.8,-,N/A,,Mostly Cloudy,250,2012-12-10 19:15:00
12:35 PM,23.0,12.2,63,-9999,10.0,West,16.1,20.7,N/A,,Overcast,260,2012-12-10 19:35:00
12:55 PM,23.0,10.4,59,-9999,10.0,West,9.2,20.7,N/A,,Overcast,280,2012-12-10 19:55:00
1:15 PM,23.0,12.2,63,-9999,10.0,West,16.1,-,N/A,,Overcast,260,2012-12-10 20:15:00
1:35 PM,23.0,10.4,59,29.71,10.0,West,12.7,16.1,N/A,,Mostly Cloudy,260,2012-12-10 20:35:00
2:15 PM,23.0,10.4,59,-9999,10.0,West,12.7,17.3,N/A,,Overcast,260,2012-12-10 21:15:00
2:55 PM,21.2,12.2,68,-9999,10.0,West,11.5,17.3,N/A,,Overcast,260,2012-12-10 21:55:00
3:15 PM,21.2,14.0,74,-9999,10.0,West,10.4,16.1,N/A,,Overcast,260,2012-12-10 22:15:00
3:35 PM,19.4,14.0,80,-9999,10.0,West,12.7,-,N/A,,Overcast,270,2012-12-10 22:35:00
3:55 PM,21.2,14.0,74,-9999,10.0,West,11.5,17.3,N/A,,Overcast,270,2012-12-10 22:55:00
4:15 PM,21.2,12.2,68,-9999,10.0,NE,4.6,-,N/A,,Overcast,50,2012-12-10 23:15:00
4:35 PM,19.4,14.0,80,-9999,4.0,North,6.9,-,N/A,Snow,Light Snow,10,2012-12-10 23:35:00
5:15 PM,15.8,12.2,86,-9999,7.0,North,9.2,-,N/A,,Overcast,350,2012-12-11 00:15:00
5:35 PM,14.0,10.4,86,-9999,10.0,NNW,11.5,-,N/A,,Mostly Cloudy,340,2012-12-11 00:35:00
5:55 PM,14.0,10.4,86,-9999,10.0,NNW,8.1,-,N/A,,Overcast,340,2012-12-11 00:55:00
6:15 PM,12.2,8.6,85,-9999,10.0,NNW,11.5,-,N/A,,Scattered Clouds,340,2012-12-11 01:15:00
6:35 PM,12.2,8.6,85,-9999,10.0,North,8.1,-,N/A,,Mostly Cloudy,360,2012-12-11 01:35:00
6:55 PM,14.0,10.4,86,-9999,7.0,NNW,6.9,-,N/A,,Overcast,330,2012-12-11 01:55:00
7:15 PM,12.2,10.4,92,-9999,10.0,North,8.1,-,N/A,,Scattered Clouds,360,2012-12-11 02:15:00
7:35 PM,12.2,8.6,85,-9999,10.0,Calm,Calm,-,N/A,,Clear,0,2012-12-11 02:35:00
7:55 PM,14.0,10.4,86,-9999,10.0,Calm,Calm,-,N/A,,Clear,0,2012-12-11 02:55:00
8:15 PM,12.2,8.6,85,-9999,10.0,WSW,4.6,-,N/A,,Clear,240,2012-12-11 03:15:00
8:35 PM,12.2,8.6,85,-9999,10.0,WSW,4.6,-,N/A,,Scattered Clouds,240,2012-12-11 03:35:00
8:55 PM,12.2,8.6,85,-9999,10.0,WSW,5.8,-,N/A,,Clear,250,2012-12-11 03:55:00
9:15 PM,12.2,10.4,92,-9999,10.0,WSW,4.6,-,N/A,,Clear,250,2012-12-11 04:15:00
9:35 PM,14.0,8.6,79,-9999,10.0,Calm,Calm,-,N/A,,Clear,0,2012-12-11 04:35:00
9:55 PM,15.8,5.0,62,-9999,10.0,West,3.5,-,N/A,,Clear,260,2012-12-11 04:55:00
10:15 PM,14.0,3.2,62,-9999,10.0,WSW,5.8,-,N/A,,Clear,250,2012-12-11 05:15:00
10:35 PM,15.8,3.2,58,-9999,10.0,West,4.6,-,N/A,,Clear,260,2012-12-11 05:35:00
11:15 PM,17.6,-0.4,45,-9999,10.0,Calm,Calm,-,N/A,,Clear,0,2012-12-11 06:15:00
11:35 PM,17.6,-0.4,45,-9999,10.0,Calm,Calm,-,N/A,,Clear,0,2012-12-11 06:35:00
11:55 PM,14.0,1.4,57,-9999,10.0,WSW,6.9,-,N/A,,Clear,250,2012-12-11 06:55:00